createdAt,value
2022-10-19T00:01:22.268Z,10.42
2022-10-19T00:03:52.580Z,10.36
2022-10-19T00:06:26.977Z,10.31
2022-10-19T00:08:58.124Z,10.30
2022-10-19T00:11:27.177Z,10.30
2022-10-19T00:13:56.768Z,10.30
2022-10-19T00:16:28.196Z,10.27
2022-10-19T00:18:58.086Z,10.22
2022-10-19T00:21:27.780Z,10.16
2022-10-19T00:23:57.776Z,10.15
2022-10-19T00:26:28.794Z,10.16
2022-10-19T00:28:59.410Z,10.12
2022-10-19T00:31:28.555Z,10.11
2022-10-19T00:33:58.517Z,10.08
2022-10-19T00:36:29.550Z,10.09
2022-10-19T00:38:59.475Z,10.12
2022-10-19T00:41:30.420Z,10.14
2022-10-19T00:43:59.131Z,10.14
2022-10-19T00:46:29.217Z,10.16
2022-10-19T00:49:01.466Z,10.18
2022-10-19T00:51:32.664Z,10.20
2022-10-19T00:54:02.818Z,10.23
2022-10-19T00:56:56.725Z,10.25
2022-10-19T00:59:28.252Z,10.26
2022-10-19T01:04:38.790Z,10.28
2022-10-19T01:07:09.170Z,10.30
2022-10-19T01:09:37.996Z,10.34
2022-10-19T01:12:27.370Z,10.37
2022-10-19T01:14:56.035Z,10.40
2022-10-19T01:17:27.588Z,10.40
2022-10-19T01:20:14.551Z,10.42
2022-10-19T01:22:44.295Z,10.44
2022-10-19T01:25:22.027Z,10.47
2022-10-19T01:28:09.427Z,10.51
2022-10-19T01:30:56.743Z,10.53
2022-10-19T01:33:32.067Z,10.53
2022-10-19T01:36:14.862Z,10.52
2022-10-19T01:38:49.693Z,10.55
2022-10-19T01:41:22.803Z,10.58
2022-10-19T01:43:58.562Z,10.66
2022-10-19T01:46:29.991Z,10.75
2022-10-19T01:49:18.977Z,10.77
2022-10-19T01:51:52.359Z,10.74
2022-10-19T01:54:24.776Z,10.82
2022-10-19T01:56:55.583Z,10.83
2022-10-19T01:59:24.103Z,10.84
2022-10-19T02:01:54.304Z,10.79
2022-10-19T02:04:24.650Z,10.74
2022-10-19T02:06:54.549Z,10.70
2022-10-19T02:09:23.607Z,10.67
2022-10-19T02:11:57.383Z,10.63
2022-10-19T02:14:30.634Z,10.61
2022-10-19T02:17:17.414Z,10.59
2022-10-19T02:19:46.430Z,10.59
2022-10-19T02:22:15.236Z,10.59
2022-10-19T02:24:44.506Z,10.68
2022-10-19T02:27:15.374Z,10.70
2022-10-19T02:29:45.644Z,10.67
2022-10-19T02:32:15.888Z,10.68
2022-10-19T02:34:46.473Z,10.72
2022-10-19T02:37:16.494Z,10.71
2022-10-19T02:39:45.269Z,10.72
2022-10-19T02:42:28.455Z,10.69
2022-10-19T02:44:59.019Z,10.63
2022-10-19T02:47:36.336Z,10.58
2022-10-19T02:50:08.983Z,10.54
2022-10-19T02:52:39.333Z,10.49
2022-10-19T02:55:34.659Z,10.58
2022-10-19T02:58:04.199Z,10.82
2022-10-19T03:00:33.617Z,10.92
2022-10-19T03:03:03.562Z,10.92
2022-10-19T03:05:33.885Z,10.74
2022-10-19T03:08:02.932Z,10.66
2022-10-19T03:10:32.142Z,10.63
2022-10-19T03:13:01.189Z,10.56
2022-10-19T03:15:31.255Z,10.43
2022-10-19T03:17:59.964Z,10.33
2022-10-19T03:20:28.937Z,10.30
2022-10-19T03:22:58.879Z,10.25
2022-10-19T03:25:29.809Z,10.26
2022-10-19T03:28:00.237Z,10.23
2022-10-19T03:30:35.251Z,10.21
2022-10-19T03:33:04.655Z,10.24
2022-10-19T03:35:34.297Z,10.26
2022-10-19T03:38:04.888Z,10.28
2022-10-19T03:40:33.502Z,10.32
2022-10-19T03:43:04.896Z,10.34
2022-10-19T03:45:33.533Z,10.41
2022-10-19T03:48:06.915Z,10.47
2022-10-19T03:50:36.427Z,10.55
2022-10-19T03:53:06.531Z,10.71
2022-10-19T03:56:03.429Z,10.82
2022-10-19T03:58:33.635Z,10.85
2022-10-19T04:01:07.126Z,10.94
2022-10-19T04:06:12.213Z,11.01
2022-10-19T04:08:44.451Z,10.94
2022-10-19T04:11:14.566Z,10.88
2022-10-19T04:13:43.274Z,10.84
2022-10-19T04:16:14.081Z,10.75
2022-10-19T04:18:42.614Z,10.67
2022-10-19T04:21:20.515Z,10.73
2022-10-19T04:23:51.336Z,10.81
2022-10-19T04:26:20.459Z,10.89
2022-10-19T04:28:49.949Z,10.93
2022-10-19T04:31:19.233Z,10.91
2022-10-19T04:33:48.525Z,10.85
2022-10-19T04:36:18.158Z,10.86
2022-10-19T04:38:48.984Z,10.98
2022-10-19T04:41:19.248Z,11.06
2022-10-19T04:43:48.908Z,11.14
2022-10-19T04:46:19.250Z,11.19
2022-10-19T04:48:49.078Z,11.27
2022-10-19T04:51:18.962Z,11.38
2022-10-19T04:53:49.520Z,11.38
2022-10-19T04:59:56.077Z,11.06
2022-10-19T05:02:26.466Z,10.96
2022-10-19T05:04:55.865Z,10.98
2022-10-19T05:07:26.004Z,10.96
2022-10-19T05:09:54.753Z,10.91
2022-10-19T05:16:01.572Z,10.80
2022-10-19T05:18:30.676Z,10.86
2022-10-19T05:21:05.006Z,10.80
2022-10-19T05:23:34.019Z,10.74
2022-10-19T05:26:07.745Z,10.75
2022-10-19T05:28:37.771Z,10.78
2022-10-19T05:31:09.710Z,10.81
2022-10-19T05:33:39.091Z,10.91
2022-10-19T05:36:15.034Z,11.02
2022-10-19T05:38:45.416Z,10.96
2022-10-19T05:41:14.907Z,10.90
2022-10-19T05:43:44.657Z,10.91
2022-10-19T05:46:22.508Z,10.98
2022-10-19T05:48:51.734Z,10.96
2022-10-19T05:51:27.303Z,10.94
2022-10-19T05:53:56.755Z,11.02
2022-10-19T05:56:31.136Z,11.10
2022-10-19T05:59:02.259Z,11.22
2022-10-19T06:01:31.612Z,11.28
2022-10-19T06:04:03.408Z,11.39
2022-10-19T06:06:32.133Z,11.45
2022-10-19T06:09:00.999Z,11.53
2022-10-19T06:11:31.259Z,11.44
2022-10-19T06:14:00.239Z,11.39
2022-10-19T06:16:30.327Z,11.49
2022-10-19T06:18:59.288Z,11.67
2022-10-19T06:41:21.333Z,11.99
2022-10-19T06:43:51.516Z,12.09
2022-10-19T06:46:22.362Z,12.29
2022-10-19T07:02:16.164Z,13.21
2022-10-19T07:05:06.243Z,13.40
2022-10-19T07:07:36.739Z,13.46
2022-10-19T07:10:07.425Z,13.40
2022-10-19T07:12:38.947Z,13.35
2022-10-19T07:15:08.235Z,13.29
2022-10-19T07:17:38.217Z,13.26
2022-10-19T07:20:08.492Z,13.10
2022-10-19T07:22:38.295Z,12.95
2022-10-19T07:25:07.705Z,12.85
2022-10-19T07:27:42.314Z,12.73
2022-10-19T07:30:13.214Z,12.69
2022-10-19T07:32:45.989Z,12.70
2022-10-19T07:35:18.098Z,12.69
2022-10-19T07:37:48.921Z,12.66
2022-10-19T07:40:19.513Z,12.61
2022-10-19T07:42:48.142Z,12.52
2022-10-19T07:45:18.245Z,12.41
2022-10-19T07:47:47.674Z,12.34
2022-10-19T07:50:25.007Z,12.27
2022-10-19T07:52:55.499Z,12.25
2022-10-19T07:55:52.079Z,12.32
2022-10-19T07:58:23.278Z,12.39
2022-10-19T08:07:05.471Z,12.52
2022-10-19T08:12:27.971Z,12.54
2022-10-19T08:14:56.656Z,12.50
2022-10-19T08:17:26.183Z,12.47
2022-10-19T08:19:56.230Z,12.44
2022-10-19T08:22:25.118Z,12.45
2022-10-19T08:24:54.574Z,12.51
2022-10-19T08:27:27.209Z,12.57
2022-10-19T08:39:31.993Z,13.35
2022-10-19T08:42:22.798Z,13.81
2022-10-19T08:44:53.284Z,14.07
2022-10-19T08:47:27.689Z,14.22
2022-10-19T08:49:57.684Z,14.61
2022-10-19T08:59:21.106Z,16.81
2022-10-19T09:01:58.654Z,17.43
2022-10-19T09:04:37.307Z,17.81
2022-10-19T09:07:24.967Z,19.36
2022-10-19T09:10:00.288Z,20.28
2022-10-19T09:12:44.671Z,22.74
2022-10-19T09:15:19.702Z,25.29
2022-10-19T09:17:48.347Z,25.88
2022-10-19T09:20:26.922Z,26.41
2022-10-19T09:23:13.621Z,28.06
2022-10-19T09:25:42.302Z,29.32
2022-10-19T09:28:36.437Z,28.92
2022-10-19T09:31:13.821Z,28.20
2022-10-19T09:33:43.844Z,27.18
2022-10-19T09:36:22.393Z,27.51
2022-10-19T09:38:56.225Z,29.06
2022-10-19T09:41:25.088Z,30.03
2022-10-19T09:43:55.102Z,30.71
2022-10-19T09:46:23.702Z,31.23
2022-10-19T09:48:53.168Z,31.61
2022-10-19T09:51:21.931Z,31.20
2022-10-19T09:53:54.975Z,29.86
2022-10-19T09:56:28.550Z,28.27
2022-10-19T09:59:02.344Z,26.72
2022-10-19T10:01:43.353Z,26.16
2022-10-19T10:04:19.365Z,27.11
2022-10-19T10:06:51.060Z,26.99
2022-10-19T10:12:31.140Z,25.30
2022-10-19T10:15:04.317Z,24.06
2022-10-19T10:17:36.313Z,22.92
2022-10-19T10:20:17.602Z,21.83
2022-10-19T10:22:57.442Z,20.75
2022-10-19T10:25:28.340Z,20.11
2022-10-19T10:28:01.710Z,19.89
2022-10-19T10:30:36.349Z,20.98
2022-10-19T10:33:13.522Z,22.99
2022-10-19T10:35:54.113Z,24.97
2022-10-19T10:38:27.459Z,25.78
2022-10-19T10:40:58.306Z,26.76
2022-10-19T10:43:33.970Z,27.31
2022-10-19T10:46:06.037Z,27.08
2022-10-19T10:49:00.835Z,25.71
2022-10-19T10:55:00.872Z,24.59
2022-10-19T10:57:39.728Z,22.98
2022-10-19T11:00:17.375Z,21.64
2022-10-19T11:02:54.016Z,20.38
2022-10-19T11:05:25.606Z,19.18
2022-10-19T11:07:58.773Z,18.16
2022-10-19T11:10:35.313Z,17.39
2022-10-19T11:13:06.125Z,16.78
2022-10-19T11:15:45.187Z,16.83
2022-10-19T11:18:21.964Z,17.82
2022-10-19T11:20:58.902Z,18.00
2022-10-19T11:23:46.791Z,17.65
2022-10-19T11:26:26.125Z,17.41
2022-10-19T11:29:14.805Z,17.26
2022-10-19T11:31:46.287Z,17.04
2022-10-19T11:34:19.307Z,17.06
2022-10-19T11:36:55.291Z,16.98
2022-10-19T11:39:34.224Z,17.02
2022-10-19T11:42:13.176Z,17.36
2022-10-19T11:44:55.889Z,18.95
2022-10-19T11:47:32.155Z,20.36
2022-10-19T11:50:10.876Z,21.04
2022-10-19T11:52:39.423Z,21.93
2022-10-19T11:59:36.238Z,22.37
2022-10-19T12:02:05.086Z,21.03
2022-10-19T12:04:33.831Z,19.63
2022-10-19T12:07:15.793Z,18.47
2022-10-19T12:09:46.805Z,17.53
2022-10-19T12:12:15.429Z,16.88
2022-10-19T12:14:48.803Z,16.59
2022-10-19T12:17:25.154Z,16.42
2022-10-19T12:19:59.935Z,16.09
2022-10-19T12:22:31.229Z,15.71
2022-10-19T12:25:01.953Z,15.42
2022-10-19T12:27:35.196Z,15.12
2022-10-19T12:40:45.235Z,14.44
2022-10-19T12:43:17.518Z,14.63
2022-10-19T12:45:49.608Z,15.18
2022-10-19T12:48:21.142Z,15.87
2022-10-19T12:50:51.705Z,16.62
2022-10-19T12:53:28.214Z,17.42
2022-10-19T13:00:23.382Z,18.81
2022-10-19T13:03:05.137Z,19.23
2022-10-19T13:05:35.330Z,19.41
2022-10-19T13:08:07.015Z,19.50
2022-10-19T13:10:41.079Z,19.43
2022-10-19T13:13:31.803Z,19.21
2022-10-19T13:16:02.955Z,18.91
2022-10-19T13:18:50.299Z,18.33
2022-10-19T13:21:38.324Z,17.92
2022-10-19T13:24:25.609Z,17.96
2022-10-19T13:27:04.265Z,18.11
2022-10-19T13:29:39.626Z,18.17
2022-10-19T13:32:27.179Z,18.24
2022-10-19T13:35:13.284Z,18.40
2022-10-19T13:37:41.928Z,18.41
2022-10-19T13:40:24.448Z,18.52
2022-10-19T13:42:58.852Z,18.60
2022-10-19T13:45:27.736Z,18.59
2022-10-19T13:48:09.946Z,18.59
2022-10-19T13:50:45.097Z,18.50
2022-10-19T13:53:32.182Z,18.27
2022-10-19T13:56:18.422Z,17.65
2022-10-19T13:59:11.172Z,16.96
2022-10-19T14:02:16.219Z,16.34
2022-10-19T14:05:03.878Z,16.02
2022-10-19T14:07:51.343Z,15.79
2022-10-19T14:10:25.159Z,15.53
2022-10-19T14:13:28.534Z,15.21
2022-10-19T14:16:03.511Z,15.23
2022-10-19T14:18:42.656Z,15.21
2022-10-19T14:24:38.006Z,15.15
2022-10-19T14:27:17.596Z,15.23
2022-10-19T14:29:47.992Z,15.34
2022-10-19T14:32:25.496Z,15.33
2022-10-19T14:34:55.932Z,15.30
2022-10-19T14:37:26.345Z,15.28
2022-10-19T14:40:12.561Z,15.27
2022-10-19T14:43:04.778Z,15.16
2022-10-19T14:45:46.179Z,14.98
2022-10-19T14:48:21.089Z,14.63
2022-10-19T14:50:59.588Z,14.25
2022-10-19T14:53:55.548Z,13.77
2022-10-19T14:56:35.966Z,13.38
2022-10-19T14:59:37.922Z,13.12
2022-10-19T15:02:31.190Z,12.86
2022-10-19T15:05:07.526Z,12.63
2022-10-19T15:08:09.985Z,12.40
2022-10-19T15:10:44.183Z,12.20
2022-10-19T15:13:39.424Z,12.07
2022-10-19T15:16:31.941Z,11.84
2022-10-19T15:23:46.585Z,11.48
2022-10-19T15:26:17.524Z,11.26
2022-10-19T15:59:01.364Z,9.52
2022-10-19T16:01:32.363Z,9.48
2022-10-19T16:04:03.582Z,9.42
2022-10-19T16:06:34.638Z,9.30
2022-10-19T16:09:05.099Z,9.24
2022-10-19T16:11:37.083Z,9.17
2022-10-19T16:14:05.930Z,9.06
2022-10-19T16:16:36.950Z,8.91
2022-10-19T16:19:10.506Z,8.78
2022-10-19T16:21:40.972Z,8.56
2022-10-19T16:24:10.638Z,8.40
2022-10-19T16:26:41.217Z,8.27
2022-10-19T16:29:10.587Z,8.15
2022-10-19T16:45:13.197Z,8.01
2022-10-19T16:47:48.673Z,7.90
2022-10-19T16:50:18.673Z,7.77
2022-10-19T16:52:49.165Z,7.65
2022-10-19T16:55:39.134Z,7.53
2022-10-19T16:58:15.386Z,7.44
2022-10-19T17:00:47.483Z,7.35
2022-10-19T17:03:18.825Z,7.25
2022-10-19T17:05:48.502Z,7.19
2022-10-19T17:08:19.638Z,7.10
2022-10-19T17:10:50.161Z,6.97
2022-10-19T17:13:27.355Z,6.91
2022-10-19T17:15:56.643Z,6.87
2022-10-19T17:18:25.254Z,6.78
2022-10-19T17:20:55.556Z,6.68
2022-10-19T17:23:25.804Z,6.64
2022-10-19T17:25:56.629Z,6.64
2022-10-19T17:28:31.219Z,6.63
2022-10-19T17:31:04.507Z,6.61
2022-10-19T17:33:35.166Z,6.65
2022-10-19T17:36:14.729Z,6.65
2022-10-19T17:38:50.028Z,6.56
2022-10-19T17:41:21.031Z,6.48
2022-10-19T17:43:57.709Z,6.42
2022-10-19T17:46:30.387Z,6.39
2022-10-19T17:49:04.359Z,6.37
2022-10-19T19:14:04.106Z,4.95
2022-10-19T19:16:36.262Z,5.01
2022-10-19T19:19:07.444Z,5.06
2022-10-19T19:21:38.237Z,5.08
2022-10-19T19:24:08.712Z,5.08
2022-10-19T19:26:41.044Z,5.08
2022-10-19T19:29:12.433Z,5.06
2022-10-19T19:31:42.105Z,5.03
2022-10-19T19:34:11.274Z,5.01
2022-10-19T19:36:48.355Z,5.01
2022-10-19T19:39:21.517Z,5.01
2022-10-19T19:41:52.234Z,4.98
2022-10-19T19:44:30.501Z,4.94
2022-10-19T19:47:02.833Z,4.90
2022-10-19T19:49:34.244Z,4.86
2022-10-19T19:52:03.875Z,4.82
2022-10-19T19:54:34.523Z,4.80
2022-10-19T19:57:38.346Z,4.78
2022-10-19T20:00:12.432Z,4.76
2022-10-19T20:02:42.224Z,4.75
2022-10-19T20:05:12.451Z,4.73
2022-10-19T20:07:46.978Z,4.72
2022-10-19T20:10:19.505Z,4.70
2022-10-19T20:12:50.789Z,4.66
2022-10-19T20:15:21.589Z,4.62
2022-10-19T20:18:03.131Z,4.58
2022-10-19T20:20:44.731Z,4.53
2022-10-19T20:23:15.158Z,4.49
2022-10-19T20:25:44.839Z,4.44
2022-10-19T20:28:14.320Z,4.39
2022-10-19T20:30:45.425Z,4.35
2022-10-19T20:33:15.770Z,4.32
2022-10-19T20:35:46.759Z,4.30
2022-10-19T20:38:17.120Z,4.28
2022-10-19T20:40:45.740Z,4.28
2022-10-19T20:43:17.759Z,4.28
2022-10-19T20:45:47.698Z,4.28
2022-10-19T20:48:16.496Z,4.27
2022-10-19T20:50:45.004Z,4.32
2022-10-19T20:53:14.126Z,4.38
2022-10-19T20:55:44.843Z,4.41
2022-10-19T20:58:13.547Z,4.37
2022-10-19T21:00:43.648Z,4.23
2022-10-19T21:03:15.321Z,4.08
2022-10-19T21:05:44.958Z,3.96
2022-10-19T21:08:16.348Z,3.88
2022-10-19T21:10:46.333Z,3.85
2022-10-19T21:13:16.856Z,3.79
2022-10-19T21:15:47.743Z,3.72
2022-10-19T21:18:16.124Z,3.70
2022-10-19T21:20:44.756Z,3.71
2022-10-19T21:23:15.377Z,3.71
2022-10-19T21:25:52.961Z,3.69
2022-10-19T21:28:25.099Z,3.67
2022-10-19T21:30:53.487Z,3.65
2022-10-19T21:33:23.380Z,3.68
2022-10-19T21:35:54.044Z,3.71
2022-10-19T21:38:22.824Z,3.73
2022-10-19T21:40:51.516Z,3.75
2022-10-19T21:43:22.135Z,3.78
2022-10-19T21:45:51.156Z,3.82
2022-10-19T21:48:20.273Z,3.82
2022-10-19T21:50:50.244Z,3.77
2022-10-19T21:53:20.238Z,3.72
2022-10-19T21:56:14.772Z,3.67
2022-10-19T21:58:48.667Z,3.60
2022-10-19T22:01:18.662Z,3.53
2022-10-19T22:03:48.089Z,3.51
2022-10-19T22:06:17.642Z,3.50
2022-10-19T22:08:49.695Z,3.46
2022-10-19T22:11:19.455Z,3.48
2022-10-19T22:13:48.737Z,3.51
2022-10-19T22:16:21.015Z,3.53
2022-10-19T22:18:50.709Z,3.55
2022-10-19T22:21:22.897Z,3.54
2022-10-19T22:23:56.179Z,3.54
2022-10-19T22:26:26.985Z,3.56
2022-10-19T22:28:56.724Z,3.61
2022-10-19T22:31:26.877Z,3.61
2022-10-19T22:33:57.406Z,3.64
2022-10-19T22:36:27.777Z,3.65
2022-10-19T22:38:57.349Z,3.66
2022-10-19T22:42:03.943Z,3.69
2022-10-19T22:44:54.685Z,3.68
2022-10-19T22:47:23.258Z,3.69
2022-10-19T22:49:52.565Z,3.69
2022-10-19T22:52:21.242Z,3.71
2022-10-19T22:54:51.583Z,3.72
2022-10-19T22:57:21.911Z,3.74
2022-10-19T22:59:51.208Z,3.75
2022-10-19T23:02:21.565Z,3.75
2022-10-19T23:04:50.505Z,3.73
2022-10-19T23:07:18.967Z,3.72
2022-10-19T23:09:48.043Z,3.69
2022-10-19T23:12:16.707Z,3.64
2022-10-19T23:14:45.333Z,3.61
2022-10-19T23:17:14.025Z,3.60
2022-10-19T23:19:42.575Z,3.61
2022-10-19T23:22:14.158Z,3.60
2022-10-19T23:24:42.634Z,3.59
2022-10-19T23:27:12.846Z,3.53
2022-10-19T23:29:44.383Z,3.49
2022-10-19T23:32:13.094Z,3.45
2022-10-19T23:34:44.512Z,3.38
2022-10-19T23:37:18.188Z,3.28
2022-10-19T23:39:46.747Z,3.22
2022-10-19T23:42:15.232Z,3.23
2022-10-19T23:44:43.820Z,3.23
2022-10-19T23:47:13.196Z,3.19
2022-10-19T23:49:41.724Z,3.15
2022-10-19T23:52:11.668Z,3.13
2022-10-19T23:54:40.226Z,3.16
2022-10-19T23:58:00.581Z,3.21
